Time;durP1;ratioP1;P1;durP2;ratioP2;P2;SDS_P1;SDS_P2;PMS_P1;PMS_P2;Temp;Humidity;BMP_temperature;BMP_pressure;BME280_temperature;BME280_humidity;BME280_pressure;Samples;Min_cycle;Max_cycle;Signal;HPM_P1;HPM_P2
2023/01/28 00:01:27;;;;;;;10.65;7.88;;;2.30;99.90;;;;;;5017518;28;20037;-88
2023/01/28 00:03:53;;;;;;;9.63;7.60;;;1.90;99.90;;;;;;5016520;28;20480;-89
2023/01/28 00:06:21;;;;;;;10.73;7.65;;;1.80;99.90;;;;;;5033237;28;20045;-89
2023/01/28 00:08:50;;;;;;;12.02;7.65;;;2.30;99.90;;;;;;5033865;28;20045;-88
2023/01/28 00:11:16;;;;;;;10.15;7.03;;;1.10;99.90;;;;;;5034105;28;20060;-88
2023/01/28 00:13:42;;;;;;;8.23;6.65;;;2.40;99.90;;;;;;5016640;28;20049;-89
2023/01/28 00:16:08;;;;;;;8.73;7.07;;;1.60;99.90;;;;;;5017240;28;20136;-88
2023/01/28 00:18:34;;;;;;;10.15;6.82;;;2.10;99.90;;;;;;5031102;28;20384;-89
2023/01/28 00:21:07;;;;;;;8.65;6.75;;;1.20;99.90;;;;;;5033209;28;20041;-89
2023/01/28 00:23:35;;;;;;;9.63;6.47;;;1.80;99.90;;;;;;5016659;28;20721;-88
2023/01/28 00:26:03;;;;;;;9.07;7.00;;;1.80;99.90;;;;;;5016479;28;20053;-88
2023/01/28 00:28:29;;;;;;;9.90;7.20;;;2.60;99.90;;;;;;5016649;28;20041;-88
2023/01/28 00:30:55;;;;;;;9.15;7.00;;;2.70;99.90;;;;;;5033315;28;20052;-88
2023/01/28 00:33:21;;;;;;;9.77;7.28;;;1.90;99.90;;;;;;5013873;28;20053;-88
2023/01/28 00:35:47;;;;;;;9.40;7.10;;;2.30;99.90;;;;;;5032451;28;20053;-89
2023/01/28 00:38:13;;;;;;;9.93;6.72;;;2.20;99.90;;;;;;5016266;28;20048;-88
2023/01/28 00:40:39;;;;;;;9.82;7.43;;;2.50;99.90;;;;;;5016601;28;20132;-89
2023/01/28 00:43:05;;;;;;;9.68;6.97;;;2.40;99.90;;;;;;5032715;28;20147;-88
2023/01/28 00:45:30;;;;;;;9.05;6.72;;;2.30;99.90;;;;;;5016180;28;20053;-88
2023/01/28 00:47:56;;;;;;;9.48;7.18;;;1.80;99.90;;;;;;5016041;28;20049;-89
2023/01/28 00:50:25;;;;;;;10.20;7.15;;;1.80;99.90;;;;;;5016813;28;20052;-88
2023/01/28 00:52:51;;;;;;;9.80;7.30;;;1.70;99.90;;;;;;5016116;28;20412;-89
2023/01/28 00:55:20;;;;;;;9.25;6.78;;;1.80;99.90;;;;;;5032663;28;20387;-88
2023/01/28 00:57:46;;;;;;;9.18;6.88;;;2.90;99.90;;;;;;5015564;28;20060;-89
2023/01/28 01:00:12;;;;;;;8.88;7.00;;;2.20;99.90;;;;;;5016094;28;20102;-89
2023/01/28 01:02:37;;;;;;;8.60;6.88;;;1.80;99.90;;;;;;5016237;28;20045;-89
2023/01/28 01:05:06;;;;;;;10.13;7.00;;;2.80;99.90;;;;;;5016688;28;20045;-89
2023/01/28 01:07:40;;;;;;;11.93;7.30;;;1.80;99.90;;;;;;5032391;28;20128;-89
2023/01/28 01:10:10;;;;;;;10.48;7.85;;;1.80;99.90;;;;;;5032245;28;20095;-88
2023/01/28 01:12:37;;;;;;;9.60;6.97;;;1.80;99.90;;;;;;5016221;28;20061;-89
2023/01/28 01:15:07;;;;;;;9.85;7.30;;;2.20;99.90;;;;;;5015309;28;20037;-88
2023/01/28 01:17:36;;;;;;;9.32;6.57;;;1.80;99.90;;;;;;5015297;28;20583;-88
2023/01/28 01:20:03;;;;;;;8.52;6.28;;;2.50;99.90;;;;;;5032543;28;20053;-87
2023/01/28 01:22:32;;;;;;;7.88;6.28;;;1.80;99.90;;;;;;5032052;28;20143;-89
2023/01/28 01:25:07;;;;;;;7.55;6.00;;;1.60;99.90;;;;;;5032324;28;20051;-89
2023/01/28 01:27:33;;;;;;;8.10;5.88;;;2.00;99.90;;;;;;5014381;28;20507;-88
2023/01/28 01:29:59;;;;;;;7.95;6.63;;;2.30;99.90;;;;;;5031545;28;20055;-89
2023/01/28 01:32:31;;;;;;;7.95;6.72;;;2.80;99.90;;;;;;5015512;28;20056;-88
2023/01/28 01:34:57;;;;;;;10.40;6.53;;;2.50;99.90;;;;;;5031790;28;20131;-89
2023/01/28 01:37:23;;;;;;;8.32;6.65;;;1.70;99.90;;;;;;5001648;28;20183;-88
2023/01/28 01:39:49;;;;;;;10.32;7.57;;;2.60;99.90;;;;;;5012105;28;20544;-88
2023/01/28 01:42:14;;;;;;;8.52;6.68;;;1.60;99.90;;;;;;5012344;28;20053;-89
2023/01/28 01:44:59;;;;;;;9.57;7.07;;;2.00;99.90;;;;;;5011846;28;20500;-89
2023/01/28 01:47:33;;;;;;;9.23;5.97;;;2.10;99.90;;;;;;5028074;28;20053;-89
2023/01/28 01:50:14;;;;;;;7.63;5.97;;;2.70;99.90;;;;;;5012492;28;20148;-89
2023/01/28 01:52:41;;;;;;;7.95;5.95;;;1.70;99.90;;;;;;5028613;28;20050;-89
2023/01/28 01:55:13;;;;;;;11.18;6.28;;;2.80;99.90;;;;;;5028851;28;20586;-88
2023/01/28 01:57:40;;;;;;;8.77;6.45;;;2.80;99.90;;;;;;5028484;28;20111;-89
2023/01/28 02:00:07;;;;;;;9.05;6.90;;;2.30;99.90;;;;;;5028324;28;20048;-89
2023/01/28 02:02:40;;;;;;;8.90;6.70;;;1.80;99.90;;;;;;5012489;28;20415;-88
2023/01/28 02:05:10;;;;;;;8.73;6.55;;;1.70;99.90;;;;;;5012206;28;20072;-88
2023/01/28 02:07:37;;;;;;;8.13;6.57;;;2.20;99.90;;;;;;5031333;28;20060;-89
2023/01/28 02:10:05;;;;;;;11.23;6.97;;;2.40;99.90;;;;;;5015221;28;20053;-88
2023/01/28 02:12:38;;;;;;;8.65;6.65;;;1.70;99.90;;;;;;5015221;28;20064;-88
2023/01/28 02:15:20;;;;;;;8.85;6.78;;;2.50;99.90;;;;;;5031529;28;20118;-88
2023/01/28 02:17:47;;;;;;;8.55;5.60;;;1.70;99.90;;;;;;5014697;28;20131;-88
2023/01/28 02:20:27;;;;;;;8.23;6.22;;;1.70;99.90;;;;;;5031386;28;20041;-89
2023/01/28 02:23:46;;;;;;;8.90;6.43;;;2.20;99.90;;;;;;5032295;28;20060;-89
2023/01/28 02:27:05;;;;;;;8.38;6.03;;;1.70;99.90;;;;;;5033502;28;20087;-89
2023/01/28 02:30:08;;;;;;;8.68;6.18;;;2.60;99.90;;;;;;5314480;23;20056;-88
2023/01/28 02:33:23;;;;;;;8.65;6.20;;;1.70;99.90;;;;;;5028366;28;20492;-89
2023/01/28 02:35:52;;;;;;;8.10;5.93;;;1.70;99.90;;;;;;5037440;28;20057;-88
2023/01/28 02:38:34;;;;;;;7.55;5.90;;;2.60;99.90;;;;;;5015368;28;20114;-88
2023/01/28 02:41:05;;;;;;;8.43;5.80;;;2.20;99.90;;;;;;5031753;28;20045;-88
2023/01/28 02:43:40;;;;;;;10.07;5.65;;;1.70;99.90;;;;;;5015705;28;20064;-88
2023/01/28 02:48:57;;;;;;;8.10;6.07;;;1.70;99.90;;;;;;5031379;28;19971;-89
2023/01/28 02:51:44;;;;;;;8.98;5.68;;;1.70;99.90;;;;;;5015359;28;20053;-89
2023/01/28 02:54:21;;;;;;;8.60;5.85;;;1.70;99.90;;;;;;5031398;28;20060;-88
2023/01/28 02:57:21;;;;;;;11.32;5.93;;;1.70;99.90;;;;;;5031445;28;20136;-89
2023/01/28 03:00:01;;;;;;;9.65;6.00;;;1.70;99.90;;;;;;5031478;28;20045;-88
2023/01/28 03:02:36;;;;;;;10.98;6.30;;;1.60;99.90;;;;;;5015384;28;20053;-88
2023/01/28 03:05:19;;;;;;;7.28;5.35;;;2.00;99.90;;;;;;5016366;28;20037;-88
2023/01/28 03:09:21;;;;;;;7.10;5.15;;;2.20;99.90;;;;;;5031772;28;20512;-89
2023/01/28 03:39:04;;;;;;;7.72;5.95;;;2.60;99.90;;;;;;5029874;28;20064;-89
2023/01/28 03:41:30;;;;;;;9.23;6.07;;;1.60;99.90;;;;;;5021800;28;20488;-89
2023/01/28 03:43:57;;;;;;;7.13;5.53;;;2.40;99.90;;;;;;5036990;28;20053;-88
2023/01/28 03:46:22;;;;;;;12.18;6.15;;;2.20;99.90;;;;;;5035632;28;20045;-88
2023/01/28 03:48:51;;;;;;;9.27;5.53;;;1.60;99.90;;;;;;5013952;28;20107;-88
2023/01/28 03:51:16;;;;;;;8.38;5.88;;;2.40;99.90;;;;;;5014043;28;20100;-88
2023/01/28 03:53:48;;;;;;;7.97;6.20;;;2.50;99.90;;;;;;5030265;28;20073;-89
2023/01/28 03:56:25;;;;;;;9.43;5.97;;;2.30;99.90;;;;;;5013876;28;20056;-88
2023/01/28 03:58:53;;;;;;;8.80;6.30;;;1.70;99.90;;;;;;5030126;28;20058;-89
2023/01/28 04:03:56;;;;;;;6.72;5.10;;;1.60;99.90;;;;;;5035279;22;20057;-88
2023/01/28 04:06:22;;;;;;;8.43;5.75;;;1.50;99.90;;;;;;4990690;28;20490;-87
2023/01/28 04:08:51;;;;;;;9.75;6.22;;;2.10;99.90;;;;;;4994685;28;20041;-88
2023/01/28 04:11:20;;;;;;;7.70;5.93;;;2.10;99.90;;;;;;4991705;28;20084;-88
2023/01/28 04:13:47;;;;;;;11.98;6.63;;;1.60;99.90;;;;;;5013805;28;20519;-88
2023/01/28 04:16:17;;;;;;;8.52;6.50;;;2.10;99.90;;;;;;4986983;28;20049;-88
2023/01/28 04:18:44;;;;;;;9.88;6.85;;;2.70;99.90;;;;;;4993652;28;20130;-88
2023/01/28 04:21:12;;;;;;;9.38;7.00;;;2.00;99.90;;;;;;4993834;28;20042;-88
2023/01/28 04:23:38;;;;;;;9.52;6.78;;;2.30;99.90;;;;;;4994035;28;20058;-88
2023/01/28 04:26:04;;;;;;;11.05;7.43;;;1.50;99.90;;;;;;4995320;28;20408;-89
2023/01/28 04:28:30;;;;;;;9.32;7.05;;;2.00;99.90;;;;;;5013468;28;20231;-89
2023/01/28 04:30:55;;;;;;;9.00;7.00;;;2.00;99.90;;;;;;4996554;28;20049;-88
2023/01/28 04:33:21;;;;;;;11.32;7.40;;;2.00;99.90;;;;;;4996558;28;20116;-88
2023/01/28 04:35:47;;;;;;;10.18;7.82;;;1.90;99.90;;;;;;4996349;28;20188;-86
2023/01/28 04:38:12;;;;;;;9.20;6.88;;;2.60;99.90;;;;;;5030849;28;20041;-88
2023/01/28 04:40:38;;;;;;;11.15;7.88;;;1.90;99.90;;;;;;4996992;28;20088;-88
2023/01/28 04:43:04;;;;;;;13.18;8.43;;;1.70;99.90;;;;;;5013328;28;20052;-88
2023/01/28 04:45:30;;;;;;;10.77;8.02;;;2.50;99.90;;;;;;5007979;28;20037;-88
2023/01/28 04:47:56;;;;;;;10.15;7.90;;;2.00;99.90;;;;;;5030780;28;20387;-88
2023/01/28 04:50:22;;;;;;;11.20;8.00;;;2.00;99.90;;;;;;4996362;28;20183;-86
2023/01/28 04:52:48;;;;;;;9.95;7.80;;;2.40;99.90;;;;;;5013329;28;20045;-88
2023/01/28 04:55:13;;;;;;;10.48;8.02;;;1.90;99.90;;;;;;5013251;28;20114;-89
2023/01/28 04:57:39;;;;;;;13.85;8.48;;;2.40;99.90;;;;;;4996385;28;20064;-88
2023/01/28 05:00:05;;;;;;;12.77;8.10;;;0.80;99.90;;;;;;5012833;28;20045;-88
2023/01/28 05:02:33;;;;;;;12.15;7.85;;;1.40;99.90;;;;;;5019033;28;20045;-88
2023/01/28 05:05:00;;;;;;;11.90;8.32;;;1.00;99.90;;;;;;5015265;28;20579;-87
2023/01/28 05:07:26;;;;;;;11.98;8.00;;;2.40;99.90;;;;;;5049903;28;20901;-88
2023/01/28 05:09:51;;;;;;;10.90;8.05;;;1.80;99.90;;;;;;5032562;28;20135;-88
2023/01/28 05:12:19;;;;;;;10.35;7.63;;;1.80;99.90;;;;;;5015916;28;20126;-88
2023/01/28 05:14:45;;;;;;;9.98;7.65;;;1.90;99.90;;;;;;5031898;28;20061;-87
2023/01/28 05:17:11;;;;;;;11.00;8.30;;;1.30;99.90;;;;;;5015202;28;20068;-88
2023/01/28 05:19:36;;;;;;;11.90;7.80;;;1.80;99.90;;;;;;5015730;28;20059;-89
2023/01/28 05:22:05;;;;;;;11.27;8.02;;;1.50;99.90;;;;;;5015759;28;20103;-89
2023/01/28 05:24:41;;;;;;;12.68;8.45;;;2.10;99.90;;;;;;5050136;28;20053;-88
2023/01/28 05:27:12;;;;;;;13.90;9.02;;;2.50;99.90;;;;;;5032783;28;20033;-89
2023/01/28 05:29:38;;;;;;;11.27;7.85;;;1.10;99.90;;;;;;5048675;23;20122;-87
2023/01/28 05:32:04;;;;;;;11.98;7.70;;;1.40;99.90;;;;;;5068802;28;20060;-88
2023/01/28 05:34:31;;;;;;;10.38;7.80;;;1.60;99.90;;;;;;5054086;28;20094;-89
2023/01/28 05:36:56;;;;;;;10.45;7.47;;;1.40;99.90;;;;;;5070810;28;20079;-88
2023/01/28 05:39:22;;;;;;;11.30;8.27;;;1.40;99.90;;;;;;5090269;28;20079;-88
2023/01/28 05:41:48;;;;;;;14.27;8.27;;;1.40;99.90;;;;;;5055269;28;20119;-88
2023/01/28 05:44:13;;;;;;;10.57;7.47;;;2.10;99.90;;;;;;5071525;28;20066;-88
2023/01/28 05:46:44;;;;;;;10.68;7.65;;;1.80;99.90;;;;;;5058563;28;20241;-88
2023/01/28 05:49:12;;;;;;;12.00;8.07;;;2.40;99.90;;;;;;5051456;28;20141;-88
2023/01/28 05:51:38;;;;;;;13.15;7.72;;;1.90;99.90;;;;;;5035311;28;20044;-88
2023/01/28 05:54:07;;;;;;;11.57;7.47;;;1.80;99.90;;;;;;5052528;28;20037;-86
2023/01/28 05:56:35;;;;;;;9.30;6.90;;;1.30;99.90;;;;;;5035252;28;20056;-88
2023/01/28 05:59:02;;;;;;;11.23;7.32;;;2.20;99.90;;;;;;5051566;28;20063;-88
2023/01/28 06:01:28;;;;;;;8.65;7.13;;;2.00;99.90;;;;;;5034559;28;20084;-89
2023/01/28 06:03:54;;;;;;;10.30;6.82;;;2.20;99.90;;;;;;5051327;28;20148;-88
2023/01/28 06:06:20;;;;;;;9.70;7.10;;;2.00;99.90;;;;;;5055564;28;20044;-88
2023/01/28 06:08:46;;;;;;;10.95;6.80;;;2.10;99.90;;;;;;5054663;28;20055;-88
2023/01/28 06:11:12;;;;;;;10.27;7.18;;;2.20;99.90;;;;;;5071608;28;20910;-88
2023/01/28 06:13:39;;;;;;;9.20;6.38;;;1.80;99.90;;;;;;5055099;28;20070;-87
2023/01/28 06:16:04;;;;;;;9.68;6.82;;;1.40;99.90;;;;;;5054589;28;20117;-88
2023/01/28 06:18:34;;;;;;;9.85;6.90;;;1.30;99.90;;;;;;5054908;28;20048;-87
2023/01/28 06:21:06;;;;;;;10.70;7.47;;;1.30;99.90;;;;;;5055138;28;20044;-88
2023/01/28 06:23:32;;;;;;;9.25;6.38;;;1.30;99.90;;;;;;5060432;28;20044;-88
2023/01/28 06:25:58;;;;;;;10.32;6.93;;;2.20;99.90;;;;;;5069204;28;20121;-87
2023/01/28 06:28:25;;;;;;;10.63;7.30;;;2.40;99.90;;;;;;5051064;28;20144;-88
2023/01/28 06:30:54;;;;;;;9.15;7.47;;;1.90;99.90;;;;;;5065833;28;20048;-87
2023/01/28 06:33:21;;;;;;;10.57;6.95;;;2.20;99.90;;;;;;5054884;28;20477;-88
2023/01/28 06:35:49;;;;;;;12.32;8.07;;;2.10;99.90;;;;;;5071286;28;20087;-88
2023/01/28 06:38:15;;;;;;;11.68;7.25;;;2.30;99.90;;;;;;5034543;28;20140;-88
2023/01/28 06:40:51;;;;;;;9.38;7.22;;;2.40;99.90;;;;;;5051268;28;20127;-88
2023/01/28 06:43:17;;;;;;;9.20;6.78;;;1.90;99.90;;;;;;5037853;28;20051;-88
2023/01/28 06:45:58;;;;;;;9.40;6.45;;;1.70;99.90;;;;;;5054237;28;20047;-89
2023/01/28 06:48:30;;;;;;;10.93;6.75;;;2.10;99.90;;;;;;5071151;28;20489;-88
2023/01/28 06:50:56;;;;;;;15.38;6.60;;;1.70;99.90;;;;;;5071301;28;20036;-88
2023/01/28 06:53:21;;;;;;;9.10;6.60;;;2.10;99.90;;;;;;5054496;28;20123;-88
2023/01/28 06:55:50;;;;;;;9.60;6.30;;;1.60;99.90;;;;;;5054139;28;20063;-86
2023/01/28 06:58:16;;;;;;;9.63;6.45;;;1.90;99.90;;;;;;5054482;28;20055;-89
2023/01/28 07:00:42;;;;;;;9.95;6.57;;;1.70;99.90;;;;;;5059352;22;20106;-88
2023/01/28 07:03:14;;;;;;;15.23;6.72;;;2.10;99.90;;;;;;5050596;28;20446;-88
2023/01/28 07:05:40;;;;;;;10.80;6.43;;;1.30;99.90;;;;;;5034422;28;20056;-88
2023/01/28 07:08:06;;;;;;;9.40;6.70;;;1.30;99.90;;;;;;5051310;28;20044;-88
2023/01/28 07:10:38;;;;;;;9.38;6.00;;;1.70;99.90;;;;;;5050797;28;20044;-88
2023/01/28 07:13:21;;;;;;;11.57;6.97;;;1.60;99.90;;;;;;5051565;28;20059;-88
2023/01/28 07:15:48;;;;;;;8.90;6.90;;;1.20;99.90;;;;;;5037485;28;20621;-88
2023/01/28 07:18:16;;;;;;;9.80;6.63;;;2.20;99.90;;;;;;5037888;28;20055;-88
2023/01/28 07:20:42;;;;;;;10.48;6.70;;;1.30;99.90;;;;;;5054105;28;20056;-88
2023/01/28 07:23:08;;;;;;;10.50;7.25;;;1.70;99.90;;;;;;5037761;28;20478;-88
2023/01/28 07:25:34;;;;;;;10.45;6.97;;;1.60;99.90;;;;;;5037024;28;20492;-88
2023/01/28 07:28:00;;;;;;;11.23;6.85;;;1.30;99.90;;;;;;5026210;28;20047;-89
2023/01/28 07:30:25;;;;;;;11.95;7.45;;;1.70;99.90;;;;;;5034093;28;20608;-88
2023/01/28 07:32:55;;;;;;;9.35;6.85;;;1.70;99.90;;;;;;5034404;28;20116;-89
2023/01/28 07:35:21;;;;;;;8.95;6.78;;;2.00;99.90;;;;;;5017749;28;20044;-88
2023/01/28 07:37:56;;;;;;;10.35;6.88;;;1.50;99.90;;;;;;5033718;28;20044;-88
2023/01/28 07:40:22;;;;;;;10.15;6.82;;;0.90;99.90;;;;;;5054245;28;20113;-88
2023/01/28 07:42:48;;;;;;;8.32;6.25;;;1.20;99.90;;;;;;5037773;28;20098;-88
2023/01/28 07:45:27;;;;;;;9.77;7.38;;;1.70;99.90;;;;;;5055689;28;20048;-89
2023/01/28 07:48:08;;;;;;;10.55;6.90;;;0.90;99.90;;;;;;5036933;28;20054;-88
2023/01/28 07:50:55;;;;;;;9.57;7.22;;;0.90;99.90;;;;;;5053904;28;20060;-89
2023/01/28 07:53:21;;;;;;;11.07;7.47;;;0.90;99.90;;;;;;5037002;28;20101;-88
2023/01/28 07:55:47;;;;;;;11.85;7.72;;;1.40;99.90;;;;;;5053700;28;20545;-89
2023/01/28 07:58:12;;;;;;;11.05;6.65;;;1.20;99.90;;;;;;5037374;28;20059;-89
2023/01/28 08:00:38;;;;;;;10.23;7.47;;;1.60;99.90;;;;;;5053031;28;20044;-89
2023/01/28 08:03:38;;;;;;;;;;;;;;;;;;;;;
2023/01/28 08:24:48;;;;;;;13.55;7.30;;;0.30;99.90;;;;;;4912087;29;20067;-91
2023/01/28 08:34:12;;;;;;;12.00;7.55;;;0.90;99.90;;;;;;5040926;22;20428;-89
2023/01/28 08:36:47;;;;;;;10.77;7.22;;;0.70;99.90;;;;;;4988056;23;20077;-89
2023/01/28 08:39:13;;;;;;;12.15;6.93;;;0.70;99.90;;;;;;4996900;28;20447;-89
2023/01/28 08:41:39;;;;;;;12.30;7.20;;;1.40;99.90;;;;;;4953303;28;20058;-89
2023/01/28 08:44:08;;;;;;;13.98;7.13;;;1.00;99.90;;;;;;4953720;28;20066;-88
2023/01/28 08:46:33;;;;;;;10.20;7.35;;;0.20;99.90;;;;;;4952743;28;20058;-88
2023/01/28 08:49:02;;;;;;;10.38;7.03;;;1.50;99.90;;;;;;4937404;28;20050;-89
2023/01/28 08:51:30;;;;;;;11.07;7.57;;;1.00;99.90;;;;;;4951207;28;20094;-86
2023/01/28 08:53:59;;;;;;;11.45;7.60;;;0.50;99.90;;;;;;4950239;28;20078;-89
2023/01/28 08:56:25;;;;;;;11.63;8.38;;;1.80;99.90;;;;;;4936931;28;20065;-86
2023/01/28 08:58:53;;;;;;;14.77;8.43;;;1.60;99.90;;;;;;4950363;28;20047;-86
2023/01/28 09:01:19;;;;;;;14.70;8.65;;;1.50;99.90;;;;;;4969067;28;20050;-86
2023/01/28 09:03:53;;;;;;;12.95;8.95;;;2.20;99.90;;;;;;4953157;28;20449;-86
2023/01/28 09:06:19;;;;;;;14.98;8.77;;;1.40;99.90;;;;;;4937137;28;20050;-85
2023/01/28 09:08:44;;;;;;;12.63;8.90;;;2.20;99.90;;;;;;4952898;28;20109;-87
2023/01/28 09:11:10;;;;;;;12.55;7.63;;;0.20;99.90;;;;;;4969310;28;20046;-86
2023/01/28 09:13:36;;;;;;;12.75;8.15;;;1.20;99.90;;;;;;4991592;28;20065;-86
2023/01/28 09:16:05;;;;;;;14.18;8.45;;;1.90;99.90;;;;;;5012824;28;20045;-86
2023/01/28 09:18:34;;;;;;;12.52;7.45;;;1.20;99.90;;;;;;4995607;28;20099;-85
2023/01/28 09:21:06;;;;;;;12.02;7.55;;;2.00;99.90;;;;;;4992922;28;20124;-85
2023/01/28 09:23:36;;;;;;;12.30;7.93;;;1.30;99.90;;;;;;5030430;28;20049;-82
2023/01/28 09:26:04;;;;;;;12.43;7.38;;;1.30;99.90;;;;;;5029376;28;20044;-82
2023/01/28 09:28:30;;;;;;;14.85;7.95;;;1.50;99.90;;;;;;5030071;28;20042;-84
2023/01/28 09:31:14;;;;;;;13.10;7.53;;;1.60;99.90;;;;;;5030399;28;20041;-84
2023/01/28 09:33:40;;;;;;;11.52;7.20;;;1.80;99.90;;;;;;5012588;28;20140;-84
2023/01/28 09:36:09;;;;;;;9.98;6.65;;;2.40;99.90;;;;;;4996471;28;20152;-82
2023/01/28 09:38:35;;;;;;;10.45;7.38;;;2.10;99.90;;;;;;5012332;28;20596;-83
2023/01/28 09:41:17;;;;;;;10.98;7.07;;;3.30;99.90;;;;;;5025988;28;20049;-84
2023/01/28 09:44:24;;;;;;;11.32;7.00;;;3.30;99.90;;;;;;4992268;28;20100;-85
2023/01/28 09:46:50;;;;;;;9.75;5.95;;;2.50;99.90;;;;;;5005644;28;20513;-87
2023/01/28 09:49:33;;;;;;;10.15;6.60;;;2.40;99.90;;;;;;4993170;28;20044;-84
2023/01/28 09:51:59;;;;;;;13.90;7.85;;;2.50;99.90;;;;;;5010411;28;20069;-85
2023/01/28 09:54:40;;;;;;;10.80;6.80;;;3.00;99.90;;;;;;4993168;28;20666;-85
2023/01/28 09:57:18;;;;;;;9.27;6.53;;;3.30;99.90;;;;;;4976199;28;20046;-84
2023/01/28 09:59:44;;;;;;;8.40;5.82;;;2.70;99.90;;;;;;5010333;28;20065;-86
2023/01/28 10:02:47;;;;;;;10.20;6.63;;;3.60;99.90;;;;;;4993595;28;20050;-86
2023/01/28 10:05:16;;;;;;;10.40;6.60;;;2.80;99.90;;;;;;4992724;28;20050;-86
2023/01/28 10:07:52;;;;;;;9.45;6.82;;;2.70;99.90;;;;;;5007686;28;20048;-86
2023/01/28 10:10:43;;;;;;;9.48;6.72;;;3.20;99.90;;;;;;4995393;28;20041;-85
2023/01/28 10:13:12;;;;;;;8.48;6.60;;;3.50;99.90;;;;;;4929233;29;20096;-86
2023/01/28 10:15:53;;;;;;;9.55;6.57;;;3.70;99.90;;;;;;4931454;29;20566;-85
2023/01/28 10:18:34;;;;;;;9.15;6.88;;;3.90;99.90;;;;;;4933125;29;20519;-84
2023/01/28 10:21:30;;;;;;;10.07;6.65;;;4.00;99.90;;;;;;4933349;29;20666;-86
2023/01/28 10:24:13;;;;;;;14.73;7.50;;;4.40;99.90;;;;;;4929678;29;20150;-85
2023/01/28 10:26:41;;;;;;;12.30;7.53;;;4.40;99.90;;;;;;4914362;29;20183;-85
2023/01/28 10:29:23;;;;;;;11.20;7.53;;;4.30;99.90;;;;;;4930199;29;20059;-85
2023/01/28 10:32:01;;;;;;;12.85;7.45;;;4.60;99.90;;;;;;4929776;29;20059;-85
2023/01/28 10:34:27;;;;;;;8.90;6.43;;;4.90;99.90;;;;;;4948065;29;20102;-85
2023/01/28 10:36:54;;;;;;;8.35;6.18;;;4.80;99.90;;;;;;4948109;28;20062;-84
2023/01/28 10:39:23;;;;;;;9.77;6.35;;;5.00;99.90;;;;;;4968335;28;20059;-85
2023/01/28 10:41:49;;;;;;;8.13;5.75;;;4.60;99.90;;;;;;4951945;28;20516;-84
2023/01/28 10:44:23;;;;;;;8.18;5.57;;;4.50;99.90;;;;;;4936429;28;20145;-85
2023/01/28 10:46:51;;;;;;;8.93;6.00;;;4.90;99.90;;;;;;4968566;28;20054;-84
2023/01/28 10:49:28;;;;;;;11.13;7.18;;;4.50;99.90;;;;;;4983734;28;20484;-85
2023/01/28 10:51:53;;;;;;;7.82;5.65;;;4.80;99.90;;;;;;5018206;28;20484;-86
2023/01/28 10:54:25;;;;;;;10.00;6.47;;;5.30;99.90;;;;;;5035082;28;20284;-85
2023/01/28 10:56:59;;;;;;;8.75;6.28;;;5.40;99.90;;;;;;5052665;28;20037;-85
2023/01/28 10:59:33;;;;;;;9.07;6.18;;;4.80;99.90;;;;;;5035137;28;20484;-84
2023/01/28 11:02:03;;;;;;;12.27;7.03;;;4.80;99.90;;;;;;5052706;28;20088;-86
2023/01/28 11:04:31;;;;;;;10.70;6.25;;;5.30;99.90;;;;;;5053095;28;20049;-86
2023/01/28 11:07:06;;;;;;;11.05;6.18;;;5.90;99.90;;;;;;5018135;28;20049;-86
2023/01/28 11:09:35;;;;;;;10.65;6.55;;;5.10;99.90;;;;;;5050878;28;20040;-81
2023/01/28 11:12:22;;;;;;;10.38;6.18;;;5.60;99.90;;;;;;5052979;28;20063;-84
2023/01/28 11:14:56;;;;;;;10.82;6.30;;;5.10;99.90;;;;;;5052713;28;20131;-85
2023/01/28 11:17:25;;;;;;;9.75;6.65;;;5.10;99.90;;;;;;5052730;28;20460;-84
2023/01/28 11:19:53;;;;;;;10.98;7.30;;;5.50;99.90;;;;;;5052938;28;20468;-82
2023/01/28 11:22:33;;;;;;;9.20;6.70;;;4.90;99.90;;;;;;5052635;28;20041;-84
2023/01/28 11:25:26;;;;;;;10.18;7.07;;;4.80;99.90;;;;;;5052594;28;20052;-85
2023/01/28 11:27:52;;;;;;;10.45;7.10;;;5.50;99.90;;;;;;4970177;28;20095;-85
2023/01/28 11:30:32;;;;;;;9.43;6.53;;;5.40;99.90;;;;;;4944746;28;20085;-83
2023/01/28 11:33:15;;;;;;;10.35;7.00;;;4.80;99.90;;;;;;4970890;28;20129;-84
2023/01/28 11:35:41;;;;;;;8.65;6.82;;;4.80;99.90;;;;;;4970896;28;20109;-83
2023/01/28 11:38:18;;;;;;;8.50;6.65;;;5.20;99.90;;;;;;4971107;28;20055;-84
2023/01/28 11:40:51;;;;;;;10.50;6.95;;;5.60;99.90;;;;;;4971138;28;20047;-84
2023/01/28 11:43:22;;;;;;;10.70;6.82;;;5.10;99.90;;;;;;4955125;28;20051;-84
2023/01/28 11:46:07;;;;;;;12.30;6.95;;;4.80;99.90;;;;;;4970780;28;20525;-85
2023/01/28 11:48:53;;;;;;;9.93;5.93;;;4.80;99.90;;;;;;4954870;28;20777;-84
2023/01/28 11:51:27;;;;;;;10.07;7.18;;;4.70;99.90;;;;;;4955239;28;20058;-83
2023/01/28 11:54:02;;;;;;;9.02;6.50;;;4.70;99.90;;;;;;4955294;28;20535;-82
2023/01/28 11:56:42;;;;;;;9.95;6.50;;;4.70;99.90;;;;;;4970765;28;20086;-84
2023/01/28 11:59:11;;;;;;;9.77;6.35;;;4.70;99.90;;;;;;4969933;28;20089;-83
2023/01/28 12:01:46;;;;;;;12.63;6.70;;;5.10;99.90;;;;;;4946910;28;20130;-84
2023/01/28 12:04:33;;;;;;;9.90;7.03;;;4.60;99.90;;;;;;4986159;28;20060;-84
2023/01/28 12:07:14;;;;;;;11.27;7.20;;;4.60;99.90;;;;;;5014368;28;20049;-84
2023/01/28 12:09:48;;;;;;;10.68;6.70;;;4.50;99.90;;;;;;5014444;28;20046;-85
2023/01/28 12:12:17;;;;;;;10.05;6.95;;;4.50;99.90;;;;;;5014310;28;20055;-85
2023/01/28 12:15:06;;;;;;;12.18;7.57;;;4.50;99.90;;;;;;5040413;28;20060;-84
2023/01/28 12:17:44;;;;;;;12.20;7.47;;;4.40;99.90;;;;;;5033771;28;20048;-84
2023/01/28 12:20:27;;;;;;;13.95;7.43;;;4.40;99.90;;;;;;5052212;28;20045;-83
2023/01/28 12:23:14;;;;;;;10.60;7.43;;;4.30;99.90;;;;;;5033902;28;20094;-84
2023/01/28 12:25:57;;;;;;;10.45;6.75;;;4.30;99.90;;;;;;5033556;28;20072;-82
2023/01/28 12:28:44;;;;;;;9.10;6.80;;;4.30;99.90;;;;;;5031638;28;20201;-83
2023/01/28 12:31:30;;;;;;;9.73;6.63;;;4.60;99.90;;;;;;5031744;28;20049;-83
2023/01/28 12:34:24;;;;;;;16.83;6.63;;;4.80;99.90;;;;;;5013537;28;20083;-85
2023/01/28 12:37:08;;;;;;;9.65;6.13;;;5.00;99.90;;;;;;5045913;28;20121;-83
2023/01/28 12:40:05;;;;;;;12.30;5.63;;;5.20;99.90;;;;;;5033298;28;20131;-83
2023/01/28 12:42:59;;;;;;;11.07;5.72;;;5.40;99.90;;;;;;5016573;28;20044;-84
2023/01/28 12:45:39;;;;;;;9.73;6.53;;;5.50;99.90;;;;;;5050819;28;20129;-84
2023/01/28 12:48:28;;;;;;;9.90;6.20;;;5.60;99.90;;;;;;5051149;28;20055;-85
2023/01/28 12:51:20;;;;;;;10.65;6.20;;;5.80;99.90;;;;;;5033084;28;20392;-85
2023/01/28 12:53:49;;;;;;;11.18;6.03;;;6.90;99.90;;;;;;4919184;29;20469;-84
2023/01/28 12:56:22;;;;;;;10.43;5.95;;;7.00;99.90;;;;;;4934259;29;20058;-85
2023/01/28 12:59:08;;;;;;;9.05;5.75;;;6.80;99.90;;;;;;4950598;29;20141;-84
2023/01/28 13:01:43;;;;;;;8.13;5.47;;;6.40;99.90;;;;;;4950842;29;20135;-84
2023/01/28 13:04:09;;;;;;;;;;;6.40;99.90;;;;;;4934393;29;20179;-84
2023/01/28 13:06:39;;;;;;;8.48;5.32;;;7.10;99.90;;;;;;4934540;29;19992;-84
2023/01/28 13:09:17;;;;;;;9.35;5.43;;;7.50;99.90;;;;;;4950926;29;20115;-86
2023/01/28 13:11:45;;;;;;;8.57;5.30;;;6.60;99.90;;;;;;4934423;29;20059;-84
2023/01/28 13:14:12;;;;;;;8.38;5.40;;;7.30;99.90;;;;;;4949129;29;20081;-86
2023/01/28 13:16:38;;;;;;;9.00;6.00;;;6.40;99.90;;;;;;4938122;29;20056;-86
2023/01/28 13:19:07;;;;;;;8.38;5.65;;;6.70;99.90;;;;;;4930525;29;20484;-86
2023/01/28 13:21:35;;;;;;;9.20;5.95;;;7.00;99.90;;;;;;4899541;29;20047;-87
2023/01/28 13:24:12;;;;;;;9.55;6.32;;;6.90;99.90;;;;;;4930897;29;20126;-86
2023/01/28 13:26:47;;;;;;;10.57;6.05;;;7.30;99.90;;;;;;4930658;29;20111;-86
2023/01/28 13:29:30;;;;;;;8.43;5.57;;;7.50;99.90;;;;;;4899237;29;20083;-89
2023/01/28 13:32:01;;;;;;;10.10;6.25;;;7.40;99.90;;;;;;5029862;28;20068;-86
2023/01/28 13:34:56;;;;;;;8.82;6.18;;;6.70;99.90;;;;;;5012469;28;20045;-88
2023/01/28 13:37:45;;;;;;;16.10;6.05;;;6.50;99.90;;;;;;5029854;28;20500;-87
2023/01/28 13:40:11;;;;;;;10.27;6.38;;;6.30;99.90;;;;;;5012559;28;20057;-86
2023/01/28 13:43:24;;;;;;;11.05;6.85;;;7.20;99.90;;;;;;5012631;28;20168;-86
2023/01/28 13:46:01;;;;;;;12.32;5.80;;;6.70;99.90;;;;;;4996169;28;20055;-87
2023/01/28 13:48:50;;;;;;;9.10;5.53;;;6.70;99.90;;;;;;5012338;28;20397;-88
2023/01/28 13:51:37;;;;;;;9.93;5.45;;;6.90;99.90;;;;;;5029774;28;20221;-87
2023/01/28 13:54:16;;;;;;;10.55;6.63;;;6.80;99.90;;;;;;5029977;28;20132;-86
2023/01/28 13:57:13;;;;;;;10.27;6.32;;;5.90;99.90;;;;;;5012659;28;20140;-85
2023/01/28 14:00:06;;;;;;;11.48;6.75;;;5.80;99.90;;;;;;5011855;28;20053;-87
2023/01/28 14:02:37;;;;;;;10.65;6.70;;;5.70;99.90;;;;;;5011885;28;20519;-87
2023/01/28 14:05:21;;;;;;;9.57;6.25;;;6.20;99.90;;;;;;5012215;28;20057;-86
2023/01/28 14:08:13;;;;;;;9.38;6.35;;;5.60;99.90;;;;;;5012304;28;20072;-85
2023/01/28 14:11:25;;;;;;;8.98;5.75;;;5.60;99.90;;;;;;5053848;23;20049;-88
2023/01/28 14:21:40;;;;;;;11.38;5.57;;;5.30;99.90;;;;;;5029974;28;20090;-86
2023/01/28 14:24:14;;;;;;;10.63;6.05;;;5.70;99.90;;;;;;4999223;28;20450;-86
2023/01/28 14:27:10;;;;;;;11.27;6.57;;;6.00;99.90;;;;;;4999751;28;20120;-87
2023/01/28 14:29:49;;;;;;;;;;;5.10;99.90;;;;;;5034213;28;20119;-86